Terminal Aerodrome Forecast
Issued by NWS Birmingham, AL

Home | Current Version | Previous Version | Text Only | Print | Product List | Glossary On
Versions: 1 2 3 4 5 6 7 8 9 10 11 12 13 14 15 16 17 18 19
501
FTUS44 KBMX 291140
TAFBHM
TAF
KBHM 291140Z 2912/3012 VRB03KT P6SM SCT035 OVC150
     FM291500 21005KT P6SM VCSH OVC040
     FM291800 23007KT P6SM -SHRA VCTS OVC050CB
     FM300200 VRB02KT P6SM OVC100=

USA.gov is the U.S. government's official web portal to all federal, state and local government web resources and services.